Blue Mountain, Arkansas
Current Conditions -  °F | °C
As of 11:53 AM on Wednesday 26 Nov 2014 (Local Time) from KRUE Reporting Station
Clear Clear  
Wind Chill: 45°   Ceiling: Unl
Heat Index: 49°   Visibility: 10mi
Dew Point: 33°   Wind: 8mph
Humidity: 54%   Direction: 260°W
Pressure: 30.02"   Gusts: NA
Location:  35.13°N, 93.71°W
Report Text: KRUE 261753Z AUTO 26007KT 230V290 10SM CLR 09/01 A3002 RMK AO2 SLP165 T00940006 10094 21022 50001
Loading
Personal Weather Stations






























Interactive Weather Map New forecast layout! Learn more

10-Day Weather Forecast

Advertisements
Track Severe Weather on mobile